Time;durP1;ratioP1;P1;durP2;ratioP2;P2;SDS_P1;SDS_P2;PMS_P1;PMS_P2;Temp;Humidity;BMP_temperature;BMP_pressure;BME280_temperature;BME280_humidity;BME280_pressure;Samples;Min_cycle;Max_cycle;Signal;HPM_P1;HPM_P2
2023/02/17 00:01:47;;;;;;;22.27;8.20;;;;;;;8.68;79.12;97165.81;5058744;28;20232;-66
2023/02/17 00:04:13;;;;;;;18.03;6.67;;;;;;;8.64;78.63;97163.59;5059025;28;20230;-65
2023/02/17 00:06:39;;;;;;;27.20;8.43;;;;;;;8.74;79.02;97165.22;5059127;28;20216;-68
2023/02/17 00:09:06;;;;;;;26.13;10.57;;;;;;;8.68;78.57;97160.53;5059165;28;20208;-65
2023/02/17 00:11:32;;;;;;;23.10;8.53;;;;;;;8.73;78.67;97168.84;5059704;28;20275;-65
2023/02/17 00:13:59;;;;;;;20.67;6.97;;;;;;;8.75;78.38;97169.50;5058682;28;20208;-68
2023/02/17 00:16:28;;;;;;;21.47;8.57;;;;;;;8.75;78.56;97172.13;5058969;28;20204;-67
2023/02/17 00:18:57;;;;;;;21.03;9.13;;;;;;;8.87;78.15;97176.25;5059076;28;20599;-68
2023/02/17 00:21:25;;;;;;;20.83;8.27;;;;;;;8.79;78.60;97170.06;5059057;28;20220;-68
2023/02/17 00:23:53;;;;;;;19.17;6.90;;;;;;;8.82;77.87;97169.75;5058250;28;20204;-68
2023/02/17 00:26:20;;;;;;;25.10;9.10;;;;;;;8.78;78.01;97165.75;5058689;28;20205;-67
2023/02/17 00:28:47;;;;;;;19.87;7.63;;;;;;;8.75;77.95;97166.88;5059024;28;20665;-67
2023/02/17 00:31:16;;;;;;;21.63;8.17;;;;;;;8.80;77.48;97164.66;5058777;28;20209;-67
2023/02/17 00:33:44;;;;;;;19.23;7.87;;;;;;;8.87;76.96;97170.16;5058370;28;20223;-68
2023/02/17 00:36:12;;;;;;;18.80;7.90;;;;;;;8.91;76.60;97161.84;5058484;28;20235;-66
2023/02/17 00:38:39;;;;;;;19.67;8.30;;;;;;;8.74;76.74;97165.22;5058381;28;20204;-68
2023/02/17 00:41:06;;;;;;;24.87;8.30;;;;;;;8.89;75.93;97158.53;5059119;28;20201;-67
2023/02/17 00:43:32;;;;;;;23.47;8.00;;;;;;;8.86;76.33;97164.06;5058720;28;20209;-68
2023/02/17 00:45:59;;;;;;;21.80;7.53;;;;;;;8.92;75.65;97150.34;5057954;28;20567;-66
2023/02/17 00:48:26;;;;;;;19.83;7.23;;;;;;;8.94;75.06;97153.66;5058989;28;20200;-68
2023/02/17 00:50:53;;;;;;;27.50;8.43;;;;;;;9.02;75.42;97151.13;5058221;28;20789;-66
2023/02/17 00:53:20;;;;;;;21.40;7.70;;;;;;;8.83;76.63;97148.56;5058040;28;20236;-66
2023/02/17 00:55:47;;;;;;;21.17;7.63;;;;;;;8.80;76.81;97151.50;5056843;28;20236;-67
2023/02/17 00:58:13;;;;;;;20.50;7.03;;;;;;;8.78;77.22;97139.47;5059069;28;20204;-68
2023/02/17 01:00:40;;;;;;;18.03;7.17;;;;;;;8.79;76.58;97149.03;5058336;28;20227;-67
2023/02/17 01:03:06;;;;;;;24.63;7.87;;;;;;;8.78;76.91;97153.47;5058211;28;20216;-67
2023/02/17 01:05:33;;;;;;;18.93;7.97;;;;;;;8.89;76.38;97153.25;5057019;28;20200;-68
2023/02/17 01:08:01;;;;;;;20.53;8.30;;;;;;;8.91;76.61;97156.59;5058370;28;20228;-68
2023/02/17 01:10:27;;;;;;;19.53;7.53;;;;;;;8.81;76.64;97154.97;5057779;28;20208;-67
2023/02/17 01:12:54;;;;;;;16.20;7.17;;;;;;;8.68;76.39;97157.91;5057935;28;20220;-68
2023/02/17 01:15:20;;;;;;;20.23;7.40;;;;;;;8.80;76.02;97156.75;5057483;28;20224;-66
2023/02/17 01:17:47;;;;;;;19.80;6.40;;;;;;;8.87;75.41;97163.13;5057617;28;20201;-66
2023/02/17 01:20:14;;;;;;;22.63;7.87;;;;;;;8.87;74.63;97160.47;5058360;28;20219;-68
2023/02/17 01:22:40;;;;;;;19.87;7.40;;;;;;;8.98;74.02;97157.66;5057407;28;20704;-68
2023/02/17 01:25:08;;;;;;;23.37;8.13;;;;;;;9.08;73.92;97157.63;5057666;28;20204;-68
2023/02/17 01:27:35;;;;;;;16.97;6.73;;;;;;;8.93;74.36;97148.56;5057911;28;20204;-67
2023/02/17 01:30:02;;;;;;;20.53;7.47;;;;;;;9.01;73.02;97149.47;5058483;28;20204;-67
2023/02/17 01:32:28;;;;;;;19.93;6.57;;;;;;;8.96;72.93;97149.09;5057384;28;20229;-68
2023/02/17 01:34:54;;;;;;;20.27;6.40;;;;;;;9.03;72.78;97146.72;5056628;28;20236;-68
2023/02/17 01:37:21;;;;;;;16.73;6.30;;;;;;;8.99;73.12;97143.53;5057460;28;20611;-66
2023/02/17 01:39:47;;;;;;;18.97;6.40;;;;;;;9.01;72.39;97138.13;5058287;28;20204;-68
2023/02/17 01:42:18;;;;;;;12.03;6.00;;;;;;;9.10;72.31;97136.28;5057274;28;20224;-68
2023/02/17 01:45:22;;;;;;;18.93;6.73;;;;;;;9.19;72.12;97134.59;5057061;28;20200;-67
2023/02/17 01:47:53;;;;;;;17.73;6.50;;;;;;;9.09;72.36;97124.13;5057120;28;20208;-67
2023/02/17 01:50:24;;;;;;;16.50;6.60;;;;;;;9.11;72.06;97121.34;5056692;28;20211;-67
2023/02/17 01:52:53;;;;;;;17.83;6.50;;;;;;;9.12;72.20;97125.63;5057318;28;20216;-68
2023/02/17 01:55:23;;;;;;;16.77;6.10;;;;;;;9.13;72.26;97119.41;5056438;28;20965;-66
2023/02/17 01:57:53;;;;;;;18.13;6.50;;;;;;;9.08;72.80;97116.38;5059092;28;20230;-66
2023/02/17 02:00:22;;;;;;;16.00;7.00;;;;;;;9.08;72.81;97117.19;5058837;28;20668;-66
2023/02/17 02:02:49;;;;;;;16.27;7.37;;;;;;;9.01;72.72;97125.81;5057655;28;20229;-66
2023/02/17 02:05:18;;;;;;;19.50;6.50;;;;;;;9.11;71.94;97118.69;5056736;28;20208;-66
2023/02/17 02:07:47;;;;;;;20.57;7.10;;;;;;;9.07;72.36;97112.09;5058626;28;20223;-68
2023/02/17 02:10:15;;;;;;;16.50;7.00;;;;;;;9.10;72.27;97112.63;5057683;28;20208;-68
2023/02/17 02:12:43;;;;;;;14.53;6.80;;;;;;;9.09;72.34;97107.53;5057226;28;20235;-68
2023/02/17 02:15:13;;;;;;;16.73;6.90;;;;;;;9.10;72.47;97109.19;5056276;28;20251;-68
2023/02/17 02:17:48;;;;;;;19.93;6.10;;;;;;;9.13;72.76;97106.25;5057564;28;20219;-66
2023/02/17 02:20:48;;;;;;;14.87;5.37;;;;;;;9.24;71.81;97106.03;5057685;28;20199;-68
2023/02/17 02:23:45;;;;;;;18.30;6.83;;;;;;;9.28;72.02;97096.91;5057576;28;20231;-66
2023/02/17 02:26:53;;;;;;;15.87;6.57;;;;;;;9.26;72.01;97083.06;5056833;28;20665;-67
2023/02/17 02:29:41;;;;;;;19.33;6.10;;;;;;;9.12;71.79;97080.94;5056787;28;20205;-66
2023/02/17 02:32:25;;;;;;;17.57;5.83;;;;;;;9.17;71.17;97079.50;5057270;28;20224;-66
2023/02/17 02:34:58;;;;;;;15.77;6.20;;;;;;;9.20;71.38;97079.22;5056415;28;20204;-68
2023/02/17 02:37:31;;;;;;;16.37;6.57;;;;;;;9.17;71.96;97074.25;5057065;28;20196;-66
2023/02/17 02:40:02;;;;;;;14.47;6.37;;;;;;;9.10;72.00;97073.19;5057369;28;20575;-68
2023/02/17 02:42:29;;;;;;;18.63;6.80;;;;;;;9.07;71.68;97071.84;5057046;28;20232;-67
2023/02/17 02:44:56;;;;;;;19.60;6.47;;;;;;;9.14;70.93;97069.28;5056681;28;20207;-67
2023/02/17 02:47:43;;;;;;;15.63;6.20;;;;;;;9.34;70.10;97062.94;5057341;28;20204;-66
2023/02/17 02:50:12;;;;;;;17.20;6.33;;;;;;;9.30;70.06;97064.19;5057166;28;20212;-67
2023/02/17 02:52:49;;;;;;;19.23;6.30;;;;;;;9.27;70.31;97058.41;5056610;28;20223;-66
2023/02/17 02:55:22;;;;;;;16.33;6.47;;;;;;;9.28;70.59;97066.16;5056943;28;20224;-67
2023/02/17 02:57:58;;;;;;;13.30;4.63;;;;;;;9.28;69.98;97062.72;5057434;28;20208;-69
2023/02/17 03:00:32;;;;;;;20.27;6.90;;;;;;;9.25;70.39;97055.09;5057539;28;20204;-68
2023/02/17 03:03:08;;;;;;;13.30;6.10;;;;;;;9.28;70.12;97054.81;5057145;28;20223;-68
2023/02/17 03:05:43;;;;;;;16.30;6.03;;;;;;;9.29;69.64;97062.56;5056764;28;20691;-68
2023/02/17 03:08:15;;;;;;;19.03;6.57;;;;;;;9.32;69.53;97056.16;5057190;28;20212;-68
2023/02/17 03:10:46;;;;;;;18.83;6.00;;;;;;;9.28;69.77;97055.63;5057873;28;20193;-68
2023/02/17 03:13:13;;;;;;;15.97;5.47;;;;;;;9.07;69.76;97051.63;5057343;28;20614;-68
2023/02/17 03:15:40;;;;;;;12.13;6.07;;;;;;;9.15;69.07;97059.59;5055719;28;20252;-68
2023/02/17 03:18:08;;;;;;;10.10;3.67;;;;;;;9.33;68.37;97057.78;5056554;28;20201;-66
2023/02/17 03:20:38;;;;;;;14.70;6.03;;;;;;;9.34;68.72;97065.56;5061218;28;20220;-67
2023/02/17 03:23:05;;;;;;;14.03;5.47;;;;;;;9.39;68.40;97057.22;5060339;28;20224;-66
2023/02/17 03:25:32;;;;;;;12.43;3.90;;;;;;;9.36;68.49;97063.59;5060112;28;20192;-67
2023/02/17 03:27:58;;;;;;;14.60;6.40;;;;;;;9.47;67.64;97059.91;5060551;28;20197;-67
2023/02/17 03:30:25;;;;;;;14.67;6.03;;;;;;;9.47;67.44;97066.00;5060613;28;20196;-68
2023/02/17 03:32:51;;;;;;;18.20;5.53;;;;;;;9.44;67.42;97070.75;5060724;28;20221;-67
2023/02/17 03:35:19;;;;;;;15.13;5.83;;;;;;;9.58;67.48;97067.59;5059498;28;21006;-67
2023/02/17 03:37:46;;;;;;;12.87;4.47;;;;;;;9.50;67.26;97070.97;5060091;28;20200;-65
2023/02/17 03:40:12;;;;;;;12.93;5.50;;;;;;;9.50;67.15;97072.78;5060506;28;20197;-68
2023/02/17 03:42:39;;;;;;;18.90;6.30;;;;;;;9.58;67.13;97072.84;5060496;28;21035;-67
2023/02/17 03:45:05;;;;;;;13.53;5.67;;;;;;;9.54;67.81;97071.50;5059228;28;20216;-66
2023/02/17 03:47:32;;;;;;;14.60;5.90;;;;;;;9.47;68.12;97070.44;5060094;28;20207;-68
2023/02/17 03:49:58;;;;;;;12.33;4.83;;;;;;;9.30;68.92;97068.63;5059834;28;20204;-68
2023/02/17 03:52:26;;;;;;;14.47;5.70;;;;;;;9.35;68.63;97069.81;5059854;28;20576;-66
2023/02/17 03:54:53;;;;;;;14.37;5.73;;;;;;;9.45;68.43;97061.88;5059203;28;20231;-66
2023/02/17 03:57:19;;;;;;;14.40;6.10;;;;;;;9.38;68.66;97056.41;5060108;28;20373;-68
2023/02/17 03:59:46;;;;;;;11.53;5.50;;;;;;;9.34;68.59;97069.97;5060337;28;20204;-66
2023/02/17 04:02:12;;;;;;;11.23;4.90;;;;;;;9.38;68.30;97058.19;5059366;28;20715;-67
2023/02/17 04:04:39;;;;;;;14.40;5.63;;;;;;;9.44;67.92;97063.66;5059270;28;20223;-65
2023/02/17 04:07:05;;;;;;;15.43;5.27;;;;;;;9.36;67.96;97068.03;5059854;28;20207;-66
2023/02/17 04:09:34;;;;;;;12.23;5.23;;;;;;;9.56;67.36;97067.75;5059711;28;20200;-68
2023/02/17 04:12:01;;;;;;;9.30;4.37;;;;;;;9.53;67.55;97062.75;5059759;28;20603;-68
2023/02/17 04:14:27;;;;;;;13.53;4.63;;;;;;;9.55;67.50;97063.44;5059571;28;20212;-68
2023/02/17 04:16:54;;;;;;;14.00;5.33;;;;;;;9.41;68.22;97060.53;5058862;28;21296;-66
2023/02/17 04:19:20;;;;;;;11.90;5.57;;;;;;;9.38;67.68;97055.53;5059398;28;20216;-68
2023/02/17 04:21:47;;;;;;;16.00;5.47;;;;;;;9.38;67.74;97045.03;5060172;28;20220;-68
2023/02/17 04:24:13;;;;;;;14.27;5.50;;;;;;;9.35;68.08;97055.84;5058156;28;20203;-66
2023/02/17 04:26:41;;;;;;;11.77;4.70;;;;;;;9.45;67.97;97054.00;5059467;28;20197;-68
2023/02/17 04:29:07;;;;;;;12.60;4.77;;;;;;;9.41;67.64;97052.63;5060226;28;20211;-66
2023/02/17 04:31:34;;;;;;;14.27;5.30;;;;;;;9.42;67.53;97044.59;5059106;28;20217;-68
2023/02/17 04:34:00;;;;;;;10.47;5.20;;;;;;;9.48;67.56;97043.16;5057764;28;20970;-66
2023/02/17 04:36:27;;;;;;;14.30;5.30;;;;;;;9.33;68.40;97042.88;5059186;28;20224;-66
2023/02/17 04:38:53;;;;;;;12.60;5.17;;;;;;;9.27;68.61;97047.91;5059786;28;20201;-68
2023/02/17 04:41:20;;;;;;;12.73;5.60;;;;;;;9.35;69.08;97046.16;5057935;28;20767;-66
2023/02/17 04:43:48;;;;;;;12.07;5.00;;;;;;;9.35;68.88;97043.53;5058727;28;20208;-67
2023/02/17 04:46:14;;;;;;;12.50;4.83;;;;;;;9.29;69.31;97040.66;5058930;28;20199;-66
2023/02/17 04:48:41;;;;;;;12.50;4.97;;;;;;;9.29;70.02;97046.78;5058192;28;20201;-67
2023/02/17 04:51:07;;;;;;;10.77;5.37;;;;;;;9.32;69.09;97043.00;5058087;28;20204;-67
2023/02/17 04:53:34;;;;;;;11.10;5.23;;;;;;;9.39;69.11;97044.88;5058246;28;20758;-66
2023/02/17 04:56:00;;;;;;;11.80;3.37;;;;;;;9.34;69.11;97039.25;5058176;28;20231;-67
2023/02/17 04:58:27;;;;;;;8.30;4.07;;;;;;;9.33;68.94;97042.00;5058367;28;20204;-67
2023/02/17 05:00:58;;;;;;;8.30;3.33;;;;;;;9.42;68.63;97046.38;5058342;28;20197;-68
2023/02/17 05:03:24;;;;;;;11.87;4.87;;;;;;;9.39;68.79;97052.75;5057941;28;20286;-66
2023/02/17 05:05:51;;;;;;;15.37;5.10;;;;;;;9.39;69.00;97047.50;5057418;28;20204;-65
2023/02/17 05:08:17;;;;;;;10.87;4.73;;;;;;;9.35;69.20;97042.72;5058534;28;20208;-68
2023/02/17 05:10:44;;;;;;;12.57;4.97;;;;;;;9.32;69.36;97040.38;5059171;28;20193;-68
2023/02/17 05:13:10;;;;;;;10.90;5.00;;;;;;;9.33;69.28;97034.13;5058170;28;20243;-67
2023/02/17 05:15:37;;;;;;;11.93;5.00;;;;;;;9.30;69.75;97043.13;5057404;28;20204;-68
2023/02/17 05:18:05;;;;;;;6.00;3.40;;;;;;;9.30;70.19;97037.88;5058476;28;20204;-66
2023/02/17 05:20:31;;;;;;;12.30;5.03;;;;;;;9.30;69.86;97039.69;5058504;28;20208;-67
2023/02/17 05:22:58;;;;;;;11.87;4.90;;;;;;;9.28;70.26;97045.13;5058636;28;20235;-67
2023/02/17 05:25:24;;;;;;;12.50;4.67;;;;;;;9.42;69.99;97043.75;5057677;28;20200;-68
2023/02/17 05:27:51;;;;;;;19.70;5.37;;;;;;;9.40;70.25;97056.25;5058552;28;20848;-68
2023/02/17 05:30:17;;;;;;;12.17;4.63;;;;;;;9.46;70.18;97048.56;5058282;28;20212;-69
2023/02/17 05:32:44;;;;;;;12.07;4.17;;;;;;;9.47;70.11;97052.00;5057957;28;20216;-67
2023/02/17 05:35:12;;;;;;;12.17;4.30;;;;;;;9.59;70.71;97048.19;5057736;28;20570;-69
2023/02/17 05:37:39;;;;;;;13.80;5.20;;;;;;;9.44;71.00;97054.97;5057404;28;20226;-69
2023/02/17 05:40:07;;;;;;;15.63;5.37;;;;;;;9.51;70.88;97050.72;5058120;28;20196;-69
2023/02/17 05:42:33;;;;;;;13.17;5.10;;;;;;;9.45;71.46;97051.34;5057269;28;20248;-69
2023/02/17 05:45:00;;;;;;;12.23;5.17;;;;;;;9.38;71.51;97047.66;5057352;28;20201;-69
2023/02/17 05:47:26;;;;;;;10.80;4.67;;;;;;;9.44;71.82;97044.44;5057986;28;20684;-69
2023/02/17 05:49:53;;;;;;;11.33;5.37;;;;;;;9.31;71.91;97044.00;5057090;28;20208;-69
2023/02/17 05:52:21;;;;;;;14.17;4.97;;;;;;;9.38;71.96;97039.75;5057546;28;20236;-70
2023/02/17 05:54:47;;;;;;;11.63;5.03;;;;;;;9.39;71.87;97052.75;5056420;28;20201;-68
2023/02/17 05:57:14;;;;;;;13.30;5.17;;;;;;;9.42;71.95;97054.28;5057056;28;20220;-69
2023/02/17 05:59:40;;;;;;;12.90;5.53;;;;;;;9.45;71.56;97052.16;5057041;28;20201;-70
2023/02/17 06:02:07;;;;;;;9.63;4.43;;;;;;;9.37;71.71;97048.66;5057521;28;20927;-67
2023/02/17 06:04:33;;;;;;;13.13;5.27;;;;;;;9.38;71.90;97045.88;5057149;28;20207;-69
2023/02/17 06:07:00;;;;;;;11.90;5.63;;;;;;;9.45;72.02;97049.53;5057880;28;20215;-69
2023/02/17 06:09:28;;;;;;;11.67;5.20;;;;;;;9.35;72.41;97046.16;5058041;28;20201;-67
2023/02/17 06:11:54;;;;;;;12.00;6.07;;;;;;;9.36;72.48;97047.81;5057952;28;20262;-70
2023/02/17 06:14:21;;;;;;;10.30;4.90;;;;;;;9.24;73.43;97045.53;5057003;28;20208;-69
2023/02/17 06:16:47;;;;;;;11.03;5.37;;;;;;;9.21;73.08;97045.84;5057847;28;20231;-68
2023/02/17 06:19:14;;;;;;;11.37;4.63;;;;;;;9.27;72.97;97040.00;5057797;28;20204;-67
2023/02/17 06:21:40;;;;;;;12.80;5.40;;;;;;;9.23;73.00;97046.53;5057857;28;20224;-67
2023/02/17 06:24:06;;;;;;;11.97;4.70;;;;;;;9.38;72.96;97048.50;5059306;28;20250;-69
2023/02/17 06:26:34;;;;;;;8.43;4.03;;;;;;;9.44;73.02;97055.78;5060748;28;20201;-68
2023/02/17 06:29:01;;;;;;;15.50;8.20;;;;;;;9.37;73.00;97065.25;5059912;28;20208;-68
2023/02/17 06:31:27;;;;;;;10.67;4.53;;;;;;;9.31;73.44;97062.41;5059081;28;21209;-68
2023/02/17 06:33:54;;;;;;;11.80;4.83;;;;;;;9.29;73.22;97061.72;5058514;28;20687;-69
2023/02/17 06:36:20;;;;;;;8.50;3.97;;;;;;;9.44;73.10;97057.59;5058900;28;20228;-67
2023/02/17 06:38:47;;;;;;;12.40;4.77;;;;;;;9.48;72.77;97056.31;5059136;28;20201;-68
2023/02/17 06:41:13;;;;;;;6.63;3.30;;;;;;;9.47;73.06;97070.44;5059026;28;20203;-69
2023/02/17 06:43:41;;;;;;;9.87;4.20;;;;;;;9.48;73.44;97067.69;5057974;28;20201;-68
2023/02/17 06:46:07;;;;;;;16.80;4.73;;;;;;;9.52;72.71;97073.44;5059577;28;20688;-69
2023/02/17 06:48:34;;;;;;;10.07;4.30;;;;;;;9.50;73.31;97078.84;5058381;28;20196;-69
2023/02/17 06:51:01;;;;;;;4.30;2.53;;;;;;;9.53;73.36;97075.09;5058525;28;20200;-69
2023/02/17 06:53:27;;;;;;;7.23;3.80;;;;;;;9.50;73.73;97070.16;5061670;28;20631;-69
2023/02/17 06:55:53;;;;;;;9.33;4.67;;;;;;;9.49;73.75;97073.75;5062359;28;20565;-69
2023/02/17 06:58:20;;;;;;;7.93;3.93;;;;;;;9.56;74.24;97069.53;5060681;28;20618;-68
2023/02/17 07:00:48;;;;;;;11.33;4.27;;;;;;;9.69;74.37;97061.09;5062774;28;20245;-69
2023/02/17 07:03:14;;;;;;;10.27;3.90;;;;;;;9.59;74.94;97056.09;5063138;28;20216;-68
2023/02/17 07:05:41;;;;;;;9.23;4.13;;;;;;;9.64;74.71;97061.72;5061204;28;20196;-69
2023/02/17 07:08:07;;;;;;;9.47;3.00;;;;;;;9.70;74.75;97070.66;5061952;28;20208;-68
2023/02/17 07:10:34;;;;;;;10.97;3.40;;;;;;;9.69;74.91;97071.63;5062396;28;20208;-69
2023/02/17 07:13:00;;;;;;;10.27;3.67;;;;;;;9.68;75.24;97067.34;5061869;28;20542;-68
2023/02/17 07:15:27;;;;;;;15.57;4.30;;;;;;;9.71;75.97;97067.06;5061280;28;20205;-69
2023/02/17 07:17:54;;;;;;;11.60;4.17;;;;;;;9.87;75.64;97061.91;5062911;28;20220;-68
2023/02/17 07:20:21;;;;;;;5.83;3.40;;;;;;;9.85;75.45;97071.78;5061461;28;20208;-69
2023/02/17 07:22:47;;;;;;;8.13;4.07;;;;;;;9.88;75.20;97062.75;5061959;28;20220;-68
2023/02/17 07:25:14;;;;;;;11.13;4.57;;;;;;;9.97;75.50;97067.13;5061538;28;20200;-69
2023/02/17 07:27:41;;;;;;;12.37;5.27;;;;;;;10.03;75.08;97067.34;5061744;28;20684;-69
2023/02/17 07:30:08;;;;;;;10.17;3.97;;;;;;;10.06;75.04;97068.84;5061854;28;20665;-69
2023/02/17 07:32:35;;;;;;;8.60;4.03;;;;;;;10.11;74.67;97066.59;5062153;28;20231;-67
2023/02/17 07:35:03;;;;;;;12.83;4.13;;;;;;;10.18;74.75;97068.41;5061271;28;20197;-68
2023/02/17 07:37:30;;;;;;;13.13;4.40;;;;;;;10.05;75.51;97078.53;5061381;28;20228;-69
2023/02/17 07:39:56;;;;;;;11.67;3.77;;;;;;;10.03;75.43;97080.50;5061094;28;20577;-68
2023/02/17 07:42:23;;;;;;;10.63;4.53;;;;;;;10.17;75.40;97079.13;5061308;28;20252;-69
2023/02/17 07:44:50;;;;;;;11.80;4.27;;;;;;;10.01;75.26;97079.81;5060049;28;20201;-68
2023/02/17 07:47:16;;;;;;;11.43;4.67;;;;;;;10.07;74.91;97073.94;5060809;28;20197;-69
2023/02/17 07:49:43;;;;;;;13.47;4.87;;;;;;;10.17;75.28;97085.22;5060436;28;20213;-68
2023/02/17 07:52:10;;;;;;;10.77;3.60;;;;;;;10.09;75.37;97086.97;5060083;28;20231;-69
2023/02/17 07:54:37;;;;;;;2.87;1.93;;;;;;;10.16;74.79;97088.84;5060214;28;20200;-69
2023/02/17 07:57:03;;;;;;;6.30;3.17;;;;;;;10.16;74.40;97086.19;5061044;28;20891;-69
2023/02/17 07:59:30;;;;;;;6.97;3.43;;;;;;;10.27;74.47;97087.75;5060908;28;20204;-68
2023/02/17 08:01:57;;;;;;;13.43;4.50;;;;;;;10.32;74.06;97092.41;5062268;28;20221;-69
2023/02/17 08:04:23;;;;;;;10.30;4.10;;;;;;;10.39;74.25;97088.16;5058117;28;20211;-68
2023/02/17 08:06:49;;;;;;;7.63;3.30;;;;;;;10.45;74.04;97076.16;5059861;28;20235;-69
2023/02/17 08:14:57;;;;;;;9.00;3.23;;;;;;;10.61;73.50;97076.28;5016207;28;20237;-69
2023/02/17 08:17:24;;;;;;;2.40;1.50;;;;;;;10.62;73.58;97084.00;5049161;28;20256;-70
2023/02/17 08:19:50;;;;;;;7.27;2.80;;;;;;;10.72;73.42;97074.19;5060562;28;20200;-69
2023/02/17 08:22:17;;;;;;;10.53;3.60;;;;;;;10.74;73.48;97072.19;5059668;28;20236;-69
2023/02/17 08:24:45;;;;;;;7.73;2.83;;;;;;;10.90;73.15;97074.94;5059236;28;20205;-69
2023/02/17 08:27:12;;;;;;;5.10;2.30;;;;;;;10.87;72.25;97067.34;5059327;28;20196;-68
2023/02/17 08:29:38;;;;;;;6.50;3.27;;;;;;;10.90;72.61;97077.56;5060075;28;20382;-69
2023/02/17 08:32:05;;;;;;;6.00;2.47;;;;;;;10.92;72.77;97085.31;5058880;28;20232;-69
2023/02/17 08:34:32;;;;;;;8.37;3.23;;;;;;;10.93;73.10;97091.25;5058911;28;20477;-70
2023/02/17 08:36:59;;;;;;;12.17;3.63;;;;;;;11.07;73.23;97093.31;5059935;28;20255;-68
2023/02/17 08:39:26;;;;;;;9.67;3.50;;;;;;;11.13;73.03;97086.56;5059075;28;20220;-69
2023/02/17 08:41:54;;;;;;;8.23;3.03;;;;;;;11.32;72.76;97089.75;5059753;28;20220;-69
2023/02/17 08:44:21;;;;;;;10.07;3.73;;;;;;;11.45;72.80;97095.38;5058289;28;20212;-69
2023/02/17 08:46:49;;;;;;;6.40;2.83;;;;;;;11.39;73.16;97087.28;5058908;28;20254;-69
2023/02/17 08:49:18;;;;;;;6.77;3.27;;;;;;;11.45;73.19;97099.84;5058264;28;20211;-68
2023/02/17 08:51:44;;;;;;;7.13;3.30;;;;;;;11.48;73.05;97092.44;5058196;28;20228;-69
2023/02/17 08:54:12;;;;;;;7.73;3.80;;;;;;;11.68;73.14;97094.66;5058459;28;20653;-69
2023/02/17 08:56:39;;;;;;;6.83;2.50;;;;;;;11.59;73.37;97100.06;5058046;28;20211;-69
2023/02/17 08:59:09;;;;;;;5.93;2.70;;;;;;;11.74;73.18;97093.16;5057409;28;20581;-69
2023/02/17 09:01:35;;;;;;;9.80;3.20;;;;;;;11.79;73.69;97101.41;5057608;28;20299;-69
2023/02/17 09:04:04;;;;;;;8.43;3.30;;;;;;;11.84;73.57;97101.75;5057140;28;20219;-68
2023/02/17 09:06:35;;;;;;;5.53;2.50;;;;;;;11.81;73.75;97091.50;5057872;28;20204;-69
2023/02/17 09:09:03;;;;;;;5.27;2.90;;;;;;;11.70;73.78;97102.41;5058269;28;20204;-70
2023/02/17 09:11:29;;;;;;;10.87;3.20;;;;;;;11.75;74.16;97102.75;5058020;28;20228;-69
2023/02/17 09:13:56;;;;;;;5.77;2.50;;;;;;;11.77;73.67;97108.66;5056870;28;20243;-69
2023/02/17 09:16:24;;;;;;;6.10;2.97;;;;;;;11.91;73.89;97108.03;5057526;28;20200;-68
2023/02/17 09:18:50;;;;;;;4.70;2.00;;;;;;;11.86;73.91;97100.59;5058263;28;20227;-69
2023/02/17 09:21:17;;;;;;;2.93;2.00;;;;;;;11.90;73.60;97111.66;5057318;28;20585;-69
2023/02/17 09:23:44;;;;;;;10.33;3.57;;;;;;;12.07;73.66;97105.41;5058132;28;20211;-68
2023/02/17 09:26:12;;;;;;;4.87;2.30;;;;;;;11.93;73.73;97111.34;5058494;28;20288;-68
2023/02/17 09:28:40;;;;;;;6.80;2.33;;;;;;;12.05;73.40;97120.59;5058604;28;20223;-68
2023/02/17 09:31:10;;;;;;;5.93;2.47;;;;;;;12.00;72.83;97122.88;5057788;28;20695;-68
2023/02/17 09:33:38;;;;;;;7.07;2.50;;;;;;;12.06;72.80;97132.81;5057829;28;20200;-69
2023/02/17 09:36:06;;;;;;;6.43;2.40;;;;;;;12.15;72.98;97127.34;5059319;28;20205;-68
2023/02/17 09:38:32;;;;;;;8.73;3.43;;;;;;;12.30;73.06;97123.88;5057476;28;21022;-68
2023/02/17 09:41:07;;;;;;;4.87;3.10;;;;;;;12.41;71.59;97112.13;5058090;28;20806;-70
2023/02/17 09:43:34;;;;;;;5.27;2.70;;;;;;;12.50;71.42;97098.75;5057249;28;20200;-69
2023/02/17 09:46:09;;;;;;;7.10;2.50;;;;;;;12.78;71.31;97110.59;5058122;28;20208;-69
2023/02/17 09:48:39;;;;;;;10.33;2.90;;;;;;;12.91;71.31;97102.97;5058555;28;20207;-69
2023/02/17 09:51:10;;;;;;;7.87;2.87;;;;;;;12.82;70.92;97112.72;5057185;28;20197;-70
2023/02/17 09:53:40;;;;;;;9.13;3.10;;;;;;;12.96;71.16;97109.41;5057068;28;20250;-68
2023/02/17 09:56:14;;;;;;;7.97;2.93;;;;;;;12.86;71.23;97107.97;5057528;28;20197;-69
2023/02/17 09:58:43;;;;;;;8.47;2.90;;;;;;;12.81;71.22;97120.81;5057020;28;20227;-69
2023/02/17 10:01:25;;;;;;;5.03;2.33;;;;;;;12.91;71.14;97111.72;5055755;28;20327;-68
2023/02/17 10:03:57;;;;;;;5.23;2.27;;;;;;;12.84;71.70;97117.84;5056947;28;20204;-68
2023/02/17 10:06:28;;;;;;;8.87;2.67;;;;;;;12.78;72.18;97123.81;5056669;28;20219;-70
2023/02/17 10:08:59;;;;;;;6.80;3.13;;;;;;;12.77;72.66;97116.88;5057657;28;20212;-68
2023/02/17 10:11:30;;;;;;;9.80;3.40;;;;;;;12.80;73.18;97119.16;5056962;28;20212;-68
2023/02/17 10:14:01;;;;;;;7.97;2.97;;;;;;;12.68;73.52;97104.66;5057010;28;20200;-70
2023/02/17 10:16:32;;;;;;;9.23;2.77;;;;;;;12.75;72.98;97110.91;5057759;28;20203;-69
2023/02/17 10:19:10;;;;;;;7.30;2.93;;;;;;;12.85;72.62;97112.41;5057057;28;20756;-69
2023/02/17 10:21:40;;;;;;;7.07;2.77;;;;;;;12.82;73.23;97111.91;5058594;28;20231;-68
2023/02/17 10:24:07;;;;;;;8.07;2.73;;;;;;;12.81;73.43;97120.81;5056490;28;20211;-68
2023/02/17 10:26:50;;;;;;;8.50;3.03;;;;;;;12.90;73.94;97117.19;5057661;28;21171;-70
2023/02/17 10:29:28;;;;;;;7.17;2.30;;;;;;;12.85;74.23;97119.50;5060793;28;20497;-69
2023/02/17 10:32:14;;;;;;;10.27;2.90;;;;;;;12.91;74.56;97116.22;5059899;28;20224;-70
2023/02/17 10:34:53;;;;;;;7.03;2.67;;;;;;;12.89;74.74;97123.47;5058489;28;20200;-69
2023/02/17 10:37:29;;;;;;;6.70;2.73;;;;;;;12.89;75.49;97121.69;5059697;28;20201;-69
2023/02/17 10:40:00;;;;;;;4.93;2.50;;;;;;;12.79;76.02;97117.50;5060952;28;20203;-68
2023/02/17 10:42:29;;;;;;;8.03;2.60;;;;;;;12.67;76.23;97121.53;5059712;28;20315;-66
2023/02/17 10:45:01;;;;;;;5.93;2.30;;;;;;;12.74;75.94;97113.72;5059285;28;20204;-66
2023/02/17 10:47:27;;;;;;;8.93;3.03;;;;;;;12.80;75.83;97105.94;5060422;28;20467;-68
2023/02/17 10:50:00;;;;;;;4.50;2.40;;;;;;;12.91;75.85;97117.03;5060154;28;20569;-67
2023/02/17 10:52:36;;;;;;;5.27;2.87;;;;;;;12.88;75.95;97119.19;5062499;28;20213;-69
2023/02/17 10:55:06;;;;;;;8.77;2.57;;;;;;;12.75;76.41;97118.84;5059575;28;20223;-67
2023/02/17 10:57:37;;;;;;;11.07;2.47;;;;;;;12.75;76.82;97118.84;5060590;28;20208;-69
2023/02/17 11:00:05;;;;;;;5.97;2.73;;;;;;;12.79;76.88;97115.72;5060563;28;20197;-68
2023/02/17 11:02:45;;;;;;;6.57;2.60;;;;;;;13.01;77.18;97115.00;5060631;28;20807;-67
2023/02/17 11:05:23;;;;;;;8.60;2.20;;;;;;;13.00;76.84;97109.91;5059353;28;20211;-67
2023/02/17 11:07:55;;;;;;;5.57;2.60;;;;;;;12.94;76.95;97111.38;5059568;28;20227;-68
2023/02/17 11:10:25;;;;;;;4.40;2.23;;;;;;;12.77;77.72;97103.66;5059691;28;20200;-68
2023/02/17 11:12:54;;;;;;;6.83;2.37;;;;;;;12.83;77.84;97092.41;5060399;28;20224;-67
2023/02/17 11:15:24;;;;;;;11.10;2.57;;;;;;;13.00;77.21;97089.53;5058728;28;20574;-68
2023/02/17 11:17:51;;;;;;;4.73;2.33;;;;;;;12.92;78.31;97086.13;5060926;28;20216;-68
2023/02/17 11:20:34;;;;;;;4.60;2.20;;;;;;;13.09;77.18;97083.22;5059738;28;20200;-68
2023/02/17 11:23:09;;;;;;;7.57;2.50;;;;;;;12.97;77.68;97078.47;5059734;28;20220;-68
2023/02/17 11:25:37;;;;;;;3.10;1.90;;;;;;;12.92;78.00;97084.28;5058938;28;20563;-68
2023/02/17 11:28:05;;;;;;;4.50;2.13;;;;;;;12.99;78.08;97071.19;5059898;28;20237;-68
2023/02/17 11:30:34;;;;;;;11.23;2.50;;;;;;;12.98;78.21;97075.69;5059241;28;20204;-67
2023/02/17 11:33:11;;;;;;;3.90;2.43;;;;;;;13.12;77.79;97063.53;5059008;28;20223;-69
2023/02/17 11:35:49;;;;;;;5.13;2.40;;;;;;;13.29;77.55;97067.75;5059306;28;20568;-68
2023/02/17 11:38:18;;;;;;;7.13;2.03;;;;;;;13.29;77.58;97079.16;5058407;28;20251;-69
2023/02/17 11:40:54;;;;;;;10.33;2.63;;;;;;;13.24;77.05;97055.03;5058972;28;20372;-69
2023/02/17 11:43:20;;;;;;;8.13;1.97;;;;;;;13.02;76.88;97053.16;5059663;28;20224;-67
2023/02/17 11:45:54;;;;;;;7.27;2.97;;;;;;;13.14;77.54;97054.44;5058562;28;20200;-69
2023/02/17 11:48:45;;;;;;;10.07;2.77;;;;;;;13.39;77.71;97048.81;5059026;28;20204;-69